Time;durP1;ratioP1;P1;durP2;ratioP2;P2;SDS_P1;SDS_P2;PMS_P1;PMS_P2;Temp;Humidity;BMP_temperature;BMP_pressure;BME280_temperature;BME280_humidity;BME280_pressure;Samples;Min_cycle;Max_cycle;Signal;HPM_P1;HPM_P2
2021/05/07 00:02:03;;;;;;;1.00;1.00;;;;;;;19.36;45.38;99553.05;;;;-52
2021/05/07 00:05:03;;;;;;;1.00;1.00;;;;;;;19.35;45.41;99547.61;;;;-52
2021/05/07 00:08:03;;;;;;;1.29;1.19;;;;;;;19.33;45.43;99546.89;;;;-52
2021/05/07 00:11:03;;;;;;;0.99;0.99;;;;;;;19.33;45.45;99559.73;;;;-52
2021/05/07 00:14:03;;;;;;;1.21;1.11;;;;;;;19.32;45.44;99554.77;;;;-52
2021/05/07 00:17:03;;;;;;;1.11;1.10;;;;;;;19.29;45.47;99552.84;;;;-52
2021/05/07 00:20:03;;;;;;;1.11;1.10;;;;;;;19.29;45.45;99552.20;;;;-52
2021/05/07 00:23:03;;;;;;;1.00;1.00;;;;;;;19.27;45.47;99559.84;;;;-52
2021/05/07 00:26:03;;;;;;;1.00;1.00;;;;;;;19.26;45.45;99560.91;;;;-52
2021/05/07 00:29:03;;;;;;;1.17;1.10;;;;;;;19.25;45.46;99554.33;;;;-52
2021/05/07 00:32:03;;;;;;;0.95;0.95;;;;;;;19.25;45.48;99567.66;;;;-52
2021/05/07 00:35:03;;;;;;;1.04;1.03;;;;;;;19.23;45.48;99573.59;;;;-52
2021/05/07 00:38:03;;;;;;;0.99;0.99;;;;;;;19.23;45.44;99575.23;;;;-52
2021/05/07 00:41:03;;;;;;;1.11;1.07;;;;;;;19.22;45.49;99580.52;;;;-52
2021/05/07 00:44:03;;;;;;;1.20;1.10;;;;;;;19.21;45.50;99583.04;;;;-51
2021/05/07 00:47:05;;;;;;;1.01;1.00;;;;;;;19.20;45.51;99581.20;;;;-52
2021/05/07 00:50:03;;;;;;;1.02;1.02;;;;;;;19.18;45.50;99579.25;;;;-52
2021/05/07 00:53:03;;;;;;;1.22;1.12;;;;;;;19.18;45.51;99581.03;;;;-52
2021/05/07 00:56:03;;;;;;;0.97;0.97;;;;;;;19.17;45.49;99576.48;;;;-51
2021/05/07 00:59:03;;;;;;;0.90;0.90;;;;;;;19.15;45.52;99579.49;;;;-52
2021/05/07 01:02:03;;;;;;;1.00;1.00;;;;;;;19.14;45.54;99582.19;;;;-52
2021/05/07 01:05:03;;;;;;;1.09;1.09;;;;;;;19.13;45.54;99586.11;;;;-52
2021/05/07 01:08:03;;;;;;;1.12;1.09;;;;;;;19.12;45.55;99585.61;;;;-51
2021/05/07 01:11:03;;;;;;;1.00;1.00;;;;;;;19.11;45.56;99586.61;;;;-51
2021/05/07 01:14:03;;;;;;;1.07;1.06;;;;;;;19.11;45.56;99593.34;;;;-52
2021/05/07 01:17:03;;;;;;;1.06;1.06;;;;;;;19.09;45.59;99592.84;;;;-52
2021/05/07 01:20:03;;;;;;;1.10;1.00;;;;;;;19.08;45.57;99599.61;;;;-52
2021/05/07 01:23:03;;;;;;;0.91;0.91;;;;;;;19.07;45.58;99597.68;;;;-52
2021/05/07 01:26:03;;;;;;;1.04;1.01;;;;;;;19.06;45.56;99596.61;;;;-53
2021/05/07 01:29:03;;;;;;;1.00;1.00;;;;;;;19.05;45.58;99596.14;;;;-52
2021/05/07 01:32:03;;;;;;;1.09;1.09;;;;;;;19.05;45.57;99607.90;;;;-52
2021/05/07 01:35:03;;;;;;;1.26;1.16;;;;;;;19.04;45.58;99612.37;;;;-52
2021/05/07 01:38:03;;;;;;;1.51;0.96;;;;;;;19.03;45.63;99616.22;;;;-52
2021/05/07 01:41:03;;;;;;;1.00;1.00;;;;;;;19.02;45.59;99616.12;;;;-52
2021/05/07 01:44:03;;;;;;;1.03;1.03;;;;;;;19.01;45.59;99615.88;;;;-52
2021/05/07 01:47:03;;;;;;;1.09;1.09;;;;;;;19.00;45.63;99608.43;;;;-52
2021/05/07 01:50:03;;;;;;;0.99;0.99;;;;;;;18.99;45.58;99607.39;;;;-51
2021/05/07 01:53:03;;;;;;;1.16;1.08;;;;;;;18.98;45.61;99601.86;;;;-51
2021/05/07 01:56:03;;;;;;;0.99;0.99;;;;;;;18.97;45.61;99607.23;;;;-52
2021/05/07 01:59:03;;;;;;;1.02;1.02;;;;;;;18.96;45.61;99602.34;;;;-52
2021/05/07 02:02:03;;;;;;;1.00;1.00;;;;;;;18.95;45.60;99594.64;;;;-52
2021/05/07 02:05:03;;;;;;;1.07;1.07;;;;;;;18.95;45.61;99594.66;;;;-51
2021/05/07 02:08:03;;;;;;;1.01;1.01;;;;;;;18.94;45.63;99592.79;;;;-52
2021/05/07 02:11:03;;;;;;;1.01;1.00;;;;;;;18.93;45.66;99591.51;;;;-52
2021/05/07 02:14:03;;;;;;;1.11;1.11;;;;;;;18.92;45.64;99584.67;;;;-52
2021/05/07 02:17:03;;;;;;;1.03;1.03;;;;;;;18.91;45.64;99586.88;;;;-51
2021/05/07 02:20:03;;;;;;;1.01;1.01;;;;;;;18.90;45.66;99581.83;;;;-52
2021/05/07 02:23:03;;;;;;;1.20;1.10;;;;;;;18.90;45.64;99586.30;;;;-53
2021/05/07 02:26:03;;;;;;;0.99;0.99;;;;;;;18.90;45.67;99598.48;;;;-52
2021/05/07 02:29:03;;;;;;;0.91;0.91;;;;;;;18.88;45.67;99599.30;;;;-52
2021/05/07 02:32:03;;;;;;;2.50;1.17;;;;;;;18.88;45.64;99607.91;;;;-52
2021/05/07 02:35:03;;;;;;;0.91;0.91;;;;;;;18.87;45.66;99618.31;;;;-52
2021/05/07 02:38:03;;;;;;;1.10;1.10;;;;;;;18.86;45.67;99621.41;;;;-52
2021/05/07 02:41:03;;;;;;;1.00;1.00;;;;;;;18.86;45.66;99618.95;;;;-52
2021/05/07 02:44:03;;;;;;;1.15;1.09;;;;;;;18.85;45.68;99622.80;;;;-52
2021/05/07 02:47:04;;;;;;;1.21;1.11;;;;;;;18.84;45.66;99625.48;;;;-52
2021/05/07 02:50:03;;;;;;;1.00;1.00;;;;;;;18.83;45.69;99624.26;;;;-52
2021/05/07 02:53:03;;;;;;;1.00;1.00;;;;;;;18.83;45.66;99622.96;;;;-53
2021/05/07 02:56:03;;;;;;;1.05;1.05;;;;;;;18.83;45.66;99625.48;;;;-52
2021/05/07 02:59:03;;;;;;;1.04;1.04;;;;;;;18.82;45.67;99631.64;;;;-52
2021/05/07 03:02:03;;;;;;;0.99;0.99;;;;;;;18.80;45.67;99627.45;;;;-51
2021/05/07 03:05:03;;;;;;;1.11;1.10;;;;;;;18.80;45.66;99629.39;;;;-52
2021/05/07 03:08:03;;;;;;;1.07;1.07;;;;;;;18.79;45.69;99633.44;;;;-52
2021/05/07 03:11:03;;;;;;;1.13;1.09;;;;;;;18.80;45.69;99639.52;;;;-52
2021/05/07 03:14:03;;;;;;;0.98;0.98;;;;;;;18.78;45.70;99645.26;;;;-52
2021/05/07 03:17:03;;;;;;;1.15;1.07;;;;;;;18.77;45.70;99647.62;;;;-52
2021/05/07 03:20:03;;;;;;;1.11;1.00;;;;;;;18.77;45.71;99646.41;;;;-52
2021/05/07 03:23:03;;;;;;;0.99;0.99;;;;;;;18.77;45.70;99646.00;;;;-52
2021/05/07 03:26:03;;;;;;;0.90;0.90;;;;;;;18.76;45.71;99652.27;;;;-51
2021/05/07 03:29:03;;;;;;;1.20;1.11;;;;;;;18.74;45.73;99649.27;;;;-51
2021/05/07 03:32:03;;;;;;;1.11;1.00;;;;;;;18.75;45.73;99656.48;;;;-51
2021/05/07 03:35:03;;;;;;;0.92;0.92;;;;;;;18.74;45.75;99660.53;;;;-51
2021/05/07 03:38:03;;;;;;;1.08;1.08;;;;;;;18.73;45.74;99675.80;;;;-51
2021/05/07 03:41:03;;;;;;;1.13;1.10;;;;;;;18.72;45.74;99684.59;;;;-51
2021/05/07 03:44:03;;;;;;;1.10;1.00;;;;;;;18.72;45.74;99687.50;;;;-52
2021/05/07 03:47:03;;;;;;;0.97;0.97;;;;;;;18.72;45.76;99691.65;;;;-52
2021/05/07 03:50:03;;;;;;;1.11;1.10;;;;;;;18.71;45.76;99695.94;;;;-52
2021/05/07 03:53:03;;;;;;;0.91;0.91;;;;;;;18.70;45.71;99700.66;;;;-51
2021/05/07 03:56:03;;;;;;;1.03;1.03;;;;;;;18.69;45.74;99704.94;;;;-51
2021/05/07 03:59:03;;;;;;;0.97;0.97;;;;;;;18.69;45.72;99710.30;;;;-52
2021/05/07 04:02:03;;;;;;;0.89;0.89;;;;;;;18.68;45.73;99710.89;;;;-51
2021/05/07 04:05:03;;;;;;;1.01;1.00;;;;;;;18.68;45.73;99716.24;;;;-51
2021/05/07 04:08:10;;;;;;;1.00;1.00;;;;;;;18.67;45.75;99719.80;;;;-51
2021/05/07 04:11:09;;;;;;;1.08;1.08;;;;;;;18.67;45.75;99726.55;;;;-52
2021/05/07 04:14:03;;;;;;;3.09;1.31;;;;;;;18.62;45.74;99727.94;;;;-52
2021/05/07 04:17:03;;;;;;;1.53;1.43;;;;;;;18.53;45.80;99731.45;;;;-52
2021/05/07 04:20:03;;;;;;;1.99;1.44;;;;;;;18.46;45.81;99744.18;;;;-52
2021/05/07 04:23:03;;;;;;;1.99;1.60;;;;;;;18.38;45.94;99746.12;;;;-52
2021/05/07 04:26:03;;;;;;;1.90;1.61;;;;;;;18.35;45.89;99751.58;;;;-52
2021/05/07 04:29:03;;;;;;;2.25;1.79;;;;;;;18.28;45.85;99755.81;;;;-52
2021/05/07 04:32:03;;;;;;;1.72;1.62;;;;;;;18.25;45.91;99764.79;;;;-52
2021/05/07 04:35:03;;;;;;;2.11;1.80;;;;;;;18.20;45.93;99761.16;;;;-52
2021/05/07 04:38:03;;;;;;;2.05;1.89;;;;;;;18.16;45.85;99763.27;;;;-52
2021/05/07 04:41:03;;;;;;;2.21;1.73;;;;;;;18.13;45.88;99779.30;;;;-52
2021/05/07 04:44:03;;;;;;;1.80;1.70;;;;;;;18.11;45.80;99782.38;;;;-52
2021/05/07 04:47:03;;;;;;;2.19;1.92;;;;;;;18.08;45.82;99782.46;;;;-52
2021/05/07 04:50:03;;;;;;;2.53;2.33;;;;;;;17.88;45.26;99791.17;;;;-51
2021/05/07 04:53:03;;;;;;;2.69;2.49;;;;;;;17.71;45.99;99796.55;;;;-47
2021/05/07 04:56:03;;;;;;;3.85;2.52;;;;;;;17.52;46.46;99806.28;;;;-51
2021/05/07 04:59:03;;;;;;;3.75;2.26;;;;;;;17.46;46.77;99812.01;;;;-51
2021/05/07 05:02:03;;;;;;;2.98;1.99;;;;;;;17.57;46.60;99814.47;;;;-51
2021/05/07 05:05:03;;;;;;;2.21;1.80;;;;;;;17.66;46.43;99816.95;;;;-51
2021/05/07 05:08:03;;;;;;;2.16;1.73;;;;;;;17.73;46.40;99822.96;;;;-51
2021/05/07 05:11:03;;;;;;;1.71;1.59;;;;;;;17.79;46.29;99830.44;;;;-51
2021/05/07 05:14:03;;;;;;;1.81;1.50;;;;;;;17.85;46.20;99837.38;;;;-51
2021/05/07 05:17:03;;;;;;;1.95;1.49;;;;;;;17.89;46.14;99838.05;;;;-51
2021/05/07 05:20:03;;;;;;;1.49;1.39;;;;;;;17.94;46.17;99840.64;;;;-51
2021/05/07 05:23:02;;;;;;;1.62;1.51;;;;;;;17.97;46.15;99844.86;;;;-51
2021/05/07 05:26:03;;;;;;;1.34;1.24;;;;;;;18.00;46.02;99846.66;;;;-51
2021/05/07 05:29:03;;;;;;;1.41;1.31;;;;;;;18.04;45.95;99848.05;;;;-51
2021/05/07 05:32:03;;;;;;;1.69;1.37;;;;;;;18.06;45.94;99850.73;;;;-51
2021/05/07 05:35:03;;;;;;;1.39;1.29;;;;;;;18.10;45.92;99852.70;;;;-51
2021/05/07 05:38:03;;;;;;;1.33;1.23;;;;;;;18.13;45.94;99860.55;;;;-51
2021/05/07 05:41:03;;;;;;;1.63;1.27;;;;;;;18.16;45.81;99864.45;;;;-51
2021/05/07 05:44:03;;;;;;;1.88;1.28;;;;;;;18.19;45.85;99868.59;;;;-51
2021/05/07 05:47:03;;;;;;;1.40;1.20;;;;;;;18.24;45.87;99873.13;;;;-51
2021/05/07 05:50:03;;;;;;;1.30;1.20;;;;;;;18.28;45.78;99879.90;;;;-51
2021/05/07 05:53:03;;;;;;;2.15;1.19;;;;;;;18.33;45.81;99885.74;;;;-51
2021/05/07 05:56:03;;;;;;;1.20;1.10;;;;;;;18.37;45.87;99887.86;;;;-50
2021/05/07 05:59:03;;;;;;;1.08;1.08;;;;;;;18.41;45.98;99893.87;;;;-50
2021/05/07 06:02:03;;;;;;;1.29;1.10;;;;;;;18.45;45.88;99897.05;;;;-51
2021/05/07 06:05:03;;;;;;;1.20;1.10;;;;;;;18.48;45.95;99893.70;;;;-51
2021/05/07 06:08:03;;;;;;;1.27;1.17;;;;;;;18.51;45.95;99898.33;;;;-51
2021/05/07 06:11:03;;;;;;;1.11;1.01;;;;;;;18.54;45.88;99904.03;;;;-51
2021/05/07 06:14:03;;;;;;;1.14;1.11;;;;;;;18.56;45.87;99902.40;;;;-51
2021/05/07 06:17:03;;;;;;;1.52;1.25;;;;;;;18.58;45.95;99904.10;;;;-50
2021/05/07 06:20:03;;;;;;;1.01;1.01;;;;;;;18.60;45.88;99900.55;;;;-51
2021/05/07 06:23:03;;;;;;;1.13;1.08;;;;;;;18.61;45.83;99900.53;;;;-51
2021/05/07 06:26:03;;;;;;;0.95;0.95;;;;;;;18.62;45.89;99908.17;;;;-51
2021/05/07 06:29:03;;;;;;;1.24;1.15;;;;;;;18.64;45.98;99910.53;;;;-50
2021/05/07 06:32:03;;;;;;;1.13;1.09;;;;;;;18.65;45.89;99912.55;;;;-51
2021/05/07 06:35:03;;;;;;;1.22;1.17;;;;;;;18.65;45.84;99916.59;;;;-51
2021/05/07 06:38:03;;;;;;;1.24;1.14;;;;;;;18.66;45.87;99923.77;;;;-52
2021/05/07 06:41:03;;;;;;;1.20;1.10;;;;;;;18.67;45.85;99923.66;;;;-51
2021/05/07 06:44:03;;;;;;;1.05;1.05;;;;;;;18.67;45.86;99925.37;;;;-51
2021/05/07 06:47:03;;;;;;;1.25;1.12;;;;;;;18.68;45.79;99928.30;;;;-51
2021/05/07 06:50:02;;;;;;;1.16;1.09;;;;;;;18.69;45.80;99940.96;;;;-51
2021/05/07 06:53:03;;;;;;;1.04;1.02;;;;;;;18.69;45.77;99939.25;;;;-51
2021/05/07 06:56:03;;;;;;;1.29;1.19;;;;;;;18.70;45.77;99937.72;;;;-51
2021/05/07 06:59:03;;;;;;;1.16;1.10;;;;;;;18.71;45.69;99941.36;;;;-55
2021/05/07 07:02:03;;;;;;;1.00;1.00;;;;;;;18.71;45.61;99949.16;;;;-55
2021/05/07 07:05:03;;;;;;;0.91;0.91;;;;;;;18.71;45.71;99952.89;;;;-54
2021/05/07 07:08:03;;;;;;;1.00;1.00;;;;;;;18.72;45.68;99955.97;;;;-55
2021/05/07 07:11:03;;;;;;;1.15;1.05;;;;;;;18.71;45.54;99958.82;;;;-52
2021/05/07 07:14:03;;;;;;;1.00;1.00;;;;;;;18.71;45.50;99960.05;;;;-52
2021/05/07 07:17:03;;;;;;;1.02;1.01;;;;;;;18.71;45.53;99961.02;;;;-55
2021/05/07 07:20:03;;;;;;;1.01;1.00;;;;;;;18.71;45.50;99969.94;;;;-52
2021/05/07 07:23:04;;;;;;;1.00;1.00;;;;;;;18.71;45.52;99977.48;;;;-54
2021/05/07 07:26:04;;;;;;;1.10;1.10;;;;;;;18.70;45.52;99979.36;;;;-51
2021/05/07 07:29:03;;;;;;;1.00;1.00;;;;;;;18.70;45.45;99982.45;;;;-55
2021/05/07 07:32:03;;;;;;;1.14;1.11;;;;;;;18.69;45.46;99985.02;;;;-56
2021/05/07 07:35:03;;;;;;;1.17;1.10;;;;;;;18.70;45.42;99993.16;;;;-52
2021/05/07 07:38:03;;;;;;;1.20;1.10;;;;;;;18.70;45.45;99996.08;;;;-51
2021/05/07 07:41:03;;;;;;;1.51;1.04;;;;;;;18.70;45.39;100001.36;;;;-51
2021/05/07 07:44:02;;;;;;;1.09;1.09;;;;;;;18.69;45.37;100003.77;;;;-51
2021/05/07 07:47:03;;;;;;;1.20;1.10;;;;;;;18.69;45.37;100006.61;;;;-51
2021/05/07 07:50:03;;;;;;;1.01;1.00;;;;;;;18.69;45.32;100012.38;;;;-52
2021/05/07 07:53:03;;;;;;;1.00;1.00;;;;;;;18.69;45.38;100021.55;;;;-51
2021/05/07 07:56:03;;;;;;;1.10;1.10;;;;;;;18.68;45.32;100028.55;;;;-51
2021/05/07 07:59:02;;;;;;;1.01;1.01;;;;;;;18.68;45.36;100032.77;;;;-52
2021/05/07 08:02:03;;;;;;;1.00;1.00;;;;;;;18.67;45.36;100031.45;;;;-51
2021/05/07 08:05:03;;;;;;;1.00;1.00;;;;;;;18.67;45.27;100037.21;;;;-52
2021/05/07 08:08:03;;;;;;;1.20;1.10;;;;;;;18.65;45.30;100041.02;;;;-59
2021/05/07 08:11:03;;;;;;;1.30;1.20;;;;;;;18.68;46.16;100045.83;;;;-50
2021/05/07 08:14:02;;;;;;;1.29;1.19;;;;;;;18.71;46.07;100055.00;;;;-49
2021/05/07 08:17:03;;;;;;;1.21;1.11;;;;;;;18.73;46.01;100050.79;;;;-48
2021/05/07 08:20:03;;;;;;;1.49;1.27;;;;;;;18.75;46.22;100059.97;;;;-49
2021/05/07 08:23:03;;;;;;;1.39;1.29;;;;;;;18.79;46.37;100066.17;;;;-48
2021/05/07 08:26:03;;;;;;;1.50;1.40;;;;;;;18.84;46.02;100072.52;;;;-49
2021/05/07 08:29:03;;;;;;;2.09;1.41;;;;;;;18.87;45.92;100075.63;;;;-52
2021/05/07 08:32:03;;;;;;;2.13;1.51;;;;;;;18.91;45.00;100072.95;;;;-50
2021/05/07 08:35:03;;;;;;;2.69;1.51;;;;;;;18.96;45.58;100074.09;;;;-50
2021/05/07 08:38:03;;;;;;;1.52;1.42;;;;;;;18.99;45.42;100084.02;;;;-57
2021/05/07 08:41:03;;;;;;;1.51;1.41;;;;;;;19.03;44.93;100086.52;;;;-51
2021/05/07 08:44:03;;;;;;;2.70;1.54;;;;;;;19.06;46.15;100092.39;;;;-48
2021/05/07 08:47:02;;;;;;;3.76;1.50;;;;;;;19.11;45.71;100102.63;;;;-53
2021/05/07 08:50:03;;;;;;;2.83;1.43;;;;;;;19.14;45.51;100105.33;;;;-54
2021/05/07 08:53:03;;;;;;;3.05;1.23;;;;;;;19.17;45.54;100106.53;;;;-54
2021/05/07 08:56:03;;;;;;;1.51;1.29;;;;;;;19.20;45.42;100109.23;;;;-54
2021/05/07 08:59:03;;;;;;;4.55;1.37;;;;;;;19.22;45.40;100115.41;;;;-54
2021/05/07 09:02:02;;;;;;;3.44;1.20;;;;;;;19.25;45.49;100118.49;;;;-54
2021/05/07 09:05:03;;;;;;;1.44;1.30;;;;;;;19.27;45.34;100123.70;;;;-54
2021/05/07 09:08:02;;;;;;;1.61;1.30;;;;;;;19.29;45.32;100119.55;;;;-54
2021/05/07 09:11:03;;;;;;;2.00;1.25;;;;;;;19.29;45.24;100124.75;;;;-53
2021/05/07 09:14:03;;;;;;;1.42;1.31;;;;;;;19.32;45.23;100121.28;;;;-53
2021/05/07 09:17:03;;;;;;;1.44;1.29;;;;;;;19.34;45.22;100123.08;;;;-54
2021/05/07 09:20:02;;;;;;;1.35;1.21;;;;;;;19.36;45.20;100128.74;;;;-54
2021/05/07 09:23:03;;;;;;;1.40;1.20;;;;;;;19.37;45.17;100132.66;;;;-54
2021/05/07 09:26:02;;;;;;;1.54;1.27;;;;;;;19.38;45.14;100137.46;;;;-54
2021/05/07 09:29:04;;;;;;;1.25;1.15;;;;;;;19.40;45.07;100141.83;;;;-54
2021/05/07 09:32:03;;;;;;;2.37;1.33;;;;;;;19.41;45.12;100149.41;;;;-54
2021/05/07 09:35:02;;;;;;;1.43;1.27;;;;;;;19.42;45.10;100144.76;;;;-54
2021/05/07 09:38:03;;;;;;;1.25;1.15;;;;;;;19.43;45.08;100149.41;;;;-54
2021/05/07 09:41:03;;;;;;;1.63;1.23;;;;;;;19.44;45.02;100154.68;;;;-54
2021/05/07 09:44:03;;;;;;;1.27;1.17;;;;;;;19.44;45.01;100157.55;;;;-54
2021/05/07 09:47:03;;;;;;;1.38;1.20;;;;;;;19.46;45.31;100155.83;;;;-52
2021/05/07 09:50:03;;;;;;;3.21;1.44;;;;;;;19.44;44.89;100159.17;;;;-51
2021/05/07 09:53:03;;;;;;;4.19;1.49;;;;;;;19.44;44.59;100165.98;;;;-51
2021/05/07 09:56:03;;;;;;;1.57;1.32;;;;;;;19.43;44.65;100160.22;;;;-52
2021/05/07 09:59:03;;;;;;;3.45;1.50;;;;;;;19.43;44.81;100157.05;;;;-52
2021/05/07 10:02:03;;;;;;;2.29;1.37;;;;;;;19.46;44.97;100155.50;;;;-51
2021/05/07 10:05:03;;;;;;;1.94;1.55;;;;;;;19.47;44.96;100162.83;;;;-50
2021/05/07 10:08:03;;;;;;;4.19;1.49;;;;;;;19.50;45.13;100159.08;;;;-50
2021/05/07 10:11:02;;;;;;;3.26;1.49;;;;;;;19.53;45.12;100168.93;;;;-50
2021/05/07 10:14:03;;;;;;;1.87;1.39;;;;;;;19.55;45.15;100176.25;;;;-52
2021/05/07 10:17:04;;;;;;;2.13;1.50;;;;;;;19.57;45.21;100159.00;;;;-50
2021/05/07 10:20:02;;;;;;;1.79;1.33;;;;;;;19.59;45.30;100159.34;;;;-57
2021/05/07 10:23:03;;;;;;;2.52;1.49;;;;;;;19.61;45.09;100173.31;;;;-55
2021/05/07 10:26:02;;;;;;;1.71;1.30;;;;;;;19.61;44.83;100174.47;;;;-54
2021/05/07 10:29:02;;;;;;;2.34;1.41;;;;;;;19.63;44.53;100170.66;;;;-55
2021/05/07 10:32:03;;;;;;;1.82;1.49;;;;;;;19.66;45.07;100184.87;;;;-57
2021/05/07 10:35:02;;;;;;;2.65;1.34;;;;;;;19.67;44.33;100186.73;;;;-61
2021/05/07 10:38:02;;;;;;;2.22;1.30;;;;;;;19.69;44.33;100187.06;;;;-54
2021/05/07 10:41:02;;;;;;;2.53;1.38;;;;;;;19.70;44.31;100190.52;;;;-58
2021/05/07 10:44:02;;;;;;;2.33;1.47;;;;;;;19.71;43.81;100187.17;;;;-47
2021/05/07 10:47:07;;;;;;;1.59;1.31;;;;;;;19.74;44.62;100190.61;;;;-50
2021/05/07 10:50:02;;;;;;;2.26;1.24;;;;;;;19.75;44.58;100204.42;;;;-50
2021/05/07 10:53:02;;;;;;;2.29;1.37;;;;;;;19.76;44.65;100207.20;;;;-50
2021/05/07 10:56:03;;;;;;;2.01;1.13;;;;;;;19.75;44.55;100210.18;;;;-50
2021/05/07 10:59:03;;;;;;;2.56;1.38;;;;;;;19.76;44.51;100205.24;;;;-50
2021/05/07 11:02:03;;;;;;;1.19;1.10;;;;;;;19.76;44.49;100210.69;;;;-50
2021/05/07 11:05:02;;;;;;;1.77;1.31;;;;;;;19.77;44.45;100204.42;;;;-50
2021/05/07 11:08:03;;;;;;;1.33;1.20;;;;;;;19.77;44.45;100211.57;;;;-50
2021/05/07 11:11:03;;;;;;;1.27;1.19;;;;;;;19.77;44.42;100212.30;;;;-50
2021/05/07 11:14:02;;;;;;;1.34;1.13;;;;;;;19.78;44.34;100230.95;;;;-50
2021/05/07 11:17:04;;;;;;;1.37;1.27;;;;;;;19.79;44.43;100228.66;;;;-50
2021/05/07 11:20:02;;;;;;;1.31;1.21;;;;;;;19.78;44.41;100238.66;;;;-50
2021/05/07 11:23:02;;;;;;;1.91;1.19;;;;;;;19.78;44.41;100240.94;;;;-50
2021/05/07 11:26:03;;;;;;;1.53;1.20;;;;;;;19.79;44.41;100292.00;;;;-47
2021/05/07 11:29:02;;;;;;;1.85;1.17;;;;;;;19.79;44.35;100283.86;;;;-48
2021/05/07 11:32:03;;;;;;;1.26;1.16;;;;;;;19.81;44.35;100279.81;;;;-47
2021/05/07 11:35:04;;;;;;;1.39;1.22;;;;;;;19.80;44.32;100282.66;;;;-48
2021/05/07 11:38:02;;;;;;;1.41;1.27;;;;;;;19.81;44.35;100296.72;;;;-48
2021/05/07 11:41:03;;;;;;;1.20;1.10;;;;;;;19.81;44.31;100300.79;;;;-51
2021/05/07 11:44:02;;;;;;;1.30;1.20;;;;;;;19.81;44.34;100322.17;;;;-50
2021/05/07 11:47:08;;;;;;;1.60;1.11;;;;;;;19.81;44.33;100332.08;;;;-51
2021/05/07 11:50:03;;;;;;;1.17;1.13;;;;;;;19.83;44.32;100349.42;;;;-51
2021/05/07 11:53:02;;;;;;;1.27;1.17;;;;;;;19.82;44.31;100336.73;;;;-51
2021/05/07 11:56:02;;;;;;;1.30;1.20;;;;;;;19.82;44.31;100353.17;;;;-51
2021/05/07 11:59:02;;;;;;;1.30;1.20;;;;;;;19.83;44.30;100360.23;;;;-51
2021/05/07 12:02:02;;;;;;;1.26;1.16;;;;;;;19.83;44.30;100353.08;;;;-51
2021/05/07 12:05:03;;;;;;;1.13;1.07;;;;;;;19.84;44.29;100346.18;;;;-55
2021/05/07 12:08:02;;;;;;;1.29;1.19;;;;;;;19.84;44.26;100334.39;;;;-55
2021/05/07 12:11:02;;;;;;;1.65;1.17;;;;;;;19.84;44.30;100336.99;;;;-55
2021/05/07 12:14:02;;;;;;;1.19;1.11;;;;;;;19.84;44.26;100345.45;;;;-54
2021/05/07 12:17:02;;;;;;;1.35;1.25;;;;;;;19.84;44.24;100344.39;;;;-54
2021/05/07 12:20:03;;;;;;;1.40;1.20;;;;;;;19.84;44.24;100348.05;;;;-55
2021/05/07 12:23:04;;;;;;;1.30;1.20;;;;;;;19.85;44.22;100342.52;;;;-55
2021/05/07 12:26:03;;;;;;;1.20;1.10;;;;;;;19.85;44.24;100345.76;;;;-55
2021/05/07 12:29:03;;;;;;;1.86;1.13;;;;;;;19.86;44.40;100347.24;;;;-55
2021/05/07 12:32:04;;;;;;;3.25;1.21;;;;;;;19.89;44.80;100346.91;;;;-56
2021/05/07 12:35:03;;;;;;;3.06;1.22;;;;;;;19.91;44.95;100354.58;;;;-54
2021/05/07 12:38:03;;;;;;;2.03;1.09;;;;;;;19.92;45.08;100347.89;;;;-57
2021/05/07 12:42:03;;;;;;;1.64;1.21;;;;;;;19.94;45.09;100349.63;;;;-53
2021/05/07 12:45:02;;;;;;;1.21;1.11;;;;;;;19.96;45.15;100353.91;;;;-53
2021/05/07 12:48:03;;;;;;;1.23;1.14;;;;;;;19.98;45.19;100360.19;;;;-54
2021/05/07 12:51:03;;;;;;;1.29;1.19;;;;;;;19.99;45.14;100353.30;;;;-53
2021/05/07 12:54:02;;;;;;;10.53;1.40;;;;;;;19.93;44.07;100339.36;;;;-52
2021/05/07 12:57:03;;;;;;;3.53;1.31;;;;;;;19.92;43.97;100354.66;;;;-56
2021/05/07 13:00:02;;;;;;;1.54;1.21;;;;;;;19.90;43.87;100357.40;;;;-55
2021/05/07 13:03:02;;;;;;;2.59;1.30;;;;;;;19.93;44.06;100367.02;;;;-55
2021/05/07 13:06:03;;;;;;;1.52;1.22;;;;;;;19.94;44.00;100375.47;;;;-54
2021/05/07 13:09:02;;;;;;;2.01;1.20;;;;;;;19.95;44.06;100382.16;;;;-54
2021/05/07 13:12:02;;;;;;;2.05;1.17;;;;;;;19.96;44.08;100374.91;;;;-53
2021/05/07 13:15:03;;;;;;;1.73;1.40;;;;;;;19.94;43.92;100371.91;;;;-53
2021/05/07 13:18:02;;;;;;;2.21;1.60;;;;;;;19.90;43.28;100386.13;;;;-54
2021/05/07 13:21:03;;;;;;;3.23;1.76;;;;;;;19.88;43.07;100412.97;;;;-57
2021/05/07 13:24:02;;;;;;;2.51;1.69;;;;;;;19.86;42.94;100422.45;;;;-57
2021/05/07 13:27:02;;;;;;;3.06;1.89;;;;;;;19.84;42.95;100418.80;;;;-59
2021/05/07 13:30:03;;;;;;;3.65;1.80;;;;;;;19.86;43.16;100418.23;;;;-52
2021/05/07 13:33:02;;;;;;;2.19;1.60;;;;;;;19.88;43.27;100414.83;;;;-52
2021/05/07 13:36:03;;;;;;;2.41;1.67;;;;;;;19.91;43.39;100407.60;;;;-52
2021/05/07 13:39:04;;;;;;;2.47;1.60;;;;;;;19.93;43.46;100405.98;;;;-52
2021/05/07 13:42:02;;;;;;;3.91;1.60;;;;;;;19.94;43.67;100405.89;;;;-59
2021/05/07 13:45:03;;;;;;;3.57;1.70;;;;;;;19.98;43.90;100406.91;;;;-54
2021/05/07 13:48:02;;;;;;;5.95;1.71;;;;;;;20.01;44.08;100403.89;;;;-55
2021/05/07 13:51:02;;;;;;;3.14;1.51;;;;;;;20.03;44.20;100402.59;;;;-56
2021/05/07 13:54:02;;;;;;;3.36;1.60;;;;;;;20.06;44.41;100415.70;;;;-52
2021/05/07 13:57:02;;;;;;;1.97;1.60;;;;;;;20.09;44.38;100421.90;;;;-52
2021/05/07 14:00:03;;;;;;;4.66;1.69;;;;;;;20.10;44.37;100424.98;;;;-53
2021/05/07 14:03:02;;;;;;;6.15;1.59;;;;;;;20.12;44.42;100428.00;;;;-61
2021/05/07 14:06:02;;;;;;;4.85;1.61;;;;;;;20.15;44.41;100434.83;;;;-56
2021/05/07 14:09:04;;;;;;;6.15;1.70;;;;;;;20.16;44.41;100440.95;;;;-52
2021/05/07 14:12:02;;;;;;;2.54;1.50;;;;;;;20.17;44.27;100437.88;;;;-58
2021/05/07 14:15:02;;;;;;;2.00;1.47;;;;;;;20.20;44.67;100451.63;;;;-57
2021/05/07 14:18:04;;;;;;;3.15;1.59;;;;;;;20.20;44.48;100449.67;;;;-51
2021/05/07 14:21:02;;;;;;;2.18;1.43;;;;;;;20.22;44.55;100450.08;;;;-51
2021/05/07 14:24:05;;;;;;;1.50;1.40;;;;;;;20.23;44.76;100449.05;;;;-53
2021/05/07 14:27:02;;;;;;;2.11;1.49;;;;;;;20.25;44.79;100457.66;;;;-49
2021/05/07 14:30:02;;;;;;;2.09;1.55;;;;;;;20.26;44.86;100457.50;;;;-51
2021/05/07 14:33:02;;;;;;;2.67;1.41;;;;;;;20.26;44.88;100453.20;;;;-52
2021/05/07 14:36:02;;;;;;;4.80;1.70;;;;;;;20.26;44.63;100466.05;;;;-53
2021/05/07 14:39:03;;;;;;;2.04;1.43;;;;;;;20.26;44.47;100466.86;;;;-52
2021/05/07 14:42:02;;;;;;;2.10;1.41;;;;;;;20.26;44.39;100473.05;;;;-52
2021/05/07 14:45:02;;;;;;;3.81;1.58;;;;;;;20.24;44.26;100475.39;;;;-51
2021/05/07 14:48:02;;;;;;;2.09;1.30;;;;;;;20.24;44.19;100483.78;;;;-51
2021/05/07 14:51:03;;;;;;;4.07;1.55;;;;;;;20.24;44.30;100489.88;;;;-48
2021/05/07 14:54:02;;;;;;;3.65;1.31;;;;;;;20.23;43.99;100489.56;;;;-51
2021/05/07 14:57:03;;;;;;;1.75;1.41;;;;;;;20.23;44.01;100497.11;;;;-51
2021/05/07 15:00:02;;;;;;;1.80;1.30;;;;;;;20.23;43.97;100498.58;;;;-51
2021/05/07 15:03:02;;;;;;;1.93;1.30;;;;;;;20.21;43.98;100503.06;;;;-51
2021/05/07 15:06:03;;;;;;;3.73;1.34;;;;;;;20.21;43.94;100505.40;;;;-51
2021/05/07 15:09:02;;;;;;;1.71;1.35;;;;;;;20.21;43.94;100516.25;;;;-51
2021/05/07 15:12:02;;;;;;;1.99;1.40;;;;;;;20.21;43.93;100519.73;;;;-51
2021/05/07 15:15:02;;;;;;;1.98;1.41;;;;;;;20.20;43.91;100524.13;;;;-51
2021/05/07 15:18:02;;;;;;;1.56;1.37;;;;;;;20.20;43.86;100529.66;;;;-51
2021/05/07 15:21:03;;;;;;;1.83;1.30;;;;;;;20.20;43.87;100527.95;;;;-51
2021/05/07 15:24:03;;;;;;;3.23;1.37;;;;;;;20.20;44.32;100528.44;;;;-59
2021/05/07 15:27:02;;;;;;;2.63;1.49;;;;;;;20.22;45.55;100529.52;;;;-55
2021/05/07 15:30:02;;;;;;;3.18;1.34;;;;;;;20.23;45.94;100529.66;;;;-51
2021/05/07 15:33:02;;;;;;;1.59;1.30;;;;;;;20.25;46.86;100522.84;;;;-52
2021/05/07 15:36:03;;;;;;;2.94;1.31;;;;;;;20.26;46.82;100529.61;;;;-51
2021/05/07 15:39:02;;;;;;;1.88;1.25;;;;;;;20.28;47.09;100527.09;;;;-51
2021/05/07 15:42:02;;;;;;;4.69;1.35;;;;;;;20.28;47.42;100537.91;;;;-51
2021/05/07 15:45:03;;;;;;;1.63;1.32;;;;;;;20.31;47.37;100540.36;;;;-50
2021/05/07 15:48:02;;;;;;;1.89;1.45;;;;;;;20.31;47.34;100546.45;;;;-52
2021/05/07 15:51:02;;;;;;;1.70;1.33;;;;;;;20.33;47.45;100549.48;;;;-56
2021/05/07 15:54:02;;;;;;;2.27;1.29;;;;;;;20.33;47.42;100552.17;;;;-51
2021/05/07 15:57:02;;;;;;;1.51;1.23;;;;;;;20.33;47.23;100556.40;;;;-52
2021/05/07 16:00:03;;;;;;;1.77;1.23;;;;;;;20.34;47.16;100565.38;;;;-53
2021/05/07 16:03:02;;;;;;;1.95;1.35;;;;;;;20.34;47.04;100559.84;;;;-52
2021/05/07 16:06:02;;;;;;;1.69;1.21;;;;;;;20.35;46.98;100566.75;;;;-57
2021/05/07 16:09:02;;;;;;;1.31;1.21;;;;;;;20.36;46.79;100563.80;;;;-53
2021/05/07 16:12:03;;;;;;;2.12;1.17;;;;;;;20.36;46.64;100571.32;;;;-51
2021/05/07 16:15:02;;;;;;;2.38;1.35;;;;;;;20.36;46.05;100578.89;;;;-54
2021/05/07 16:18:02;;;;;;;2.06;1.33;;;;;;;20.34;45.88;100578.23;;;;-52
2021/05/07 16:21:03;;;;;;;2.49;1.23;;;;;;;20.34;45.97;100578.64;;;;-50
2021/05/07 16:24:02;;;;;;;1.33;1.18;;;;;;;20.33;46.01;100577.88;;;;-51
2021/05/07 16:27:02;;;;;;;1.67;1.23;;;;;;;20.33;46.06;100571.95;;;;-51
2021/05/07 16:30:03;;;;;;;1.21;1.11;;;;;;;20.33;46.16;100575.94;;;;-59
2021/05/07 16:33:02;;;;;;;1.74;1.25;;;;;;;20.33;46.18;100577.07;;;;-54
2021/05/07 16:36:02;;;;;;;1.32;1.20;;;;;;;20.34;45.97;100579.05;;;;-47
2021/05/07 16:39:02;;;;;;;1.40;1.28;;;;;;;20.34;45.88;100581.98;;;;-48
2021/05/07 16:42:08;;;;;;;1.33;1.23;;;;;;;20.34;45.86;100579.53;;;;-49
2021/05/07 16:45:02;;;;;;;1.59;1.18;;;;;;;20.35;45.82;100582.05;;;;-51
2021/05/07 16:48:02;;;;;;;1.53;1.19;;;;;;;20.35;45.72;100582.38;;;;-55
2021/05/07 16:51:02;;;;;;;1.29;1.10;;;;;;;20.35;45.77;100586.68;;;;-48